sensor_id;sensor_type;location;lat;lon;timestamp;temperature;humidity
41694;DHT22;27377;50.666;9.150;2024-02-26T00:02:18;4.30;99.90
41694;DHT22;27377;50.666;9.150;2024-02-26T00:05:02;4.30;99.90
41694;DHT22;27377;50.666;9.150;2024-02-26T00:07:46;4.40;99.90
41694;DHT22;27377;50.666;9.150;2024-02-26T00:10:31;4.30;99.90
41694;DHT22;27377;50.666;9.150;2024-02-26T00:13:15;4.40;99.90
41694;DHT22;27377;50.666;9.150;2024-02-26T00:15:59;4.40;99.90
41694;DHT22;27377;50.666;9.150;2024-02-26T00:18:43;4.40;99.90
41694;DHT22;27377;50.666;9.150;2024-02-26T00:21:28;4.50;99.90
41694;DHT22;27377;50.666;9.150;2024-02-26T00:24:12;4.50;99.90
41694;DHT22;27377;50.666;9.150;2024-02-26T00:26:57;4.40;99.90
41694;DHT22;27377;50.666;9.150;2024-02-26T00:29:41;4.50;99.90
41694;DHT22;27377;50.666;9.150;2024-02-26T00:32:25;4.50;99.90
41694;DHT22;27377;50.666;9.150;2024-02-26T00:35:09;4.50;99.90
41694;DHT22;27377;50.666;9.150;2024-02-26T00:37:53;4.50;99.90
41694;DHT22;27377;50.666;9.150;2024-02-26T00:40:37;4.60;99.90
41694;DHT22;27377;50.666;9.150;2024-02-26T00:43:22;4.60;99.90
41694;DHT22;27377;50.666;9.150;2024-02-26T00:46:06;4.60;99.90
41694;DHT22;27377;50.666;9.150;2024-02-26T00:48:50;4.60;99.90
41694;DHT22;27377;50.666;9.150;2024-02-26T00:51:34;4.60;99.90
41694;DHT22;27377;50.666;9.150;2024-02-26T00:54:18;4.60;99.90
41694;DHT22;27377;50.666;9.150;2024-02-26T00:57:02;4.60;99.90
41694;DHT22;27377;50.666;9.150;2024-02-26T00:59:45;4.70;99.90
41694;DHT22;27377;50.666;9.150;2024-02-26T01:02:30;4.70;99.90
41694;DHT22;27377;50.666;9.150;2024-02-26T01:05:14;4.70;99.90
41694;DHT22;27377;50.666;9.150;2024-02-26T01:07:59;4.70;99.90
41694;DHT22;27377;50.666;9.150;2024-02-26T01:10:43;4.70;99.90
41694;DHT22;27377;50.666;9.150;2024-02-26T01:13:27;4.70;99.90
41694;DHT22;27377;50.666;9.150;2024-02-26T01:16:11;4.70;99.90
41694;DHT22;27377;50.666;9.150;2024-02-26T01:18:55;4.70;99.90
41694;DHT22;27377;50.666;9.150;2024-02-26T01:21:39;4.70;99.90
41694;DHT22;27377;50.666;9.150;2024-02-26T01:24:23;4.60;99.90
41694;DHT22;27377;50.666;9.150;2024-02-26T01:27:07;4.70;99.90
41694;DHT22;27377;50.666;9.150;2024-02-26T01:29:53;4.70;99.90
41694;DHT22;27377;50.666;9.150;2024-02-26T01:32:37;4.70;99.90
41694;DHT22;27377;50.666;9.150;2024-02-26T01:35:21;4.70;99.90
41694;DHT22;27377;50.666;9.150;2024-02-26T01:38:05;4.60;99.90
41694;DHT22;27377;50.666;9.150;2024-02-26T01:40:49;4.70;99.90
41694;DHT22;27377;50.666;9.150;2024-02-26T01:43:34;4.70;99.90
41694;DHT22;27377;50.666;9.150;2024-02-26T01:46:18;4.70;99.90
41694;DHT22;27377;50.666;9.150;2024-02-26T01:49:02;4.70;99.90
41694;DHT22;27377;50.666;9.150;2024-02-26T01:51:47;4.60;99.90
41694;DHT22;27377;50.666;9.150;2024-02-26T01:54:32;4.70;99.90
41694;DHT22;27377;50.666;9.150;2024-02-26T01:57:18;4.60;99.90
41694;DHT22;27377;50.666;9.150;2024-02-26T02:00:02;4.70;99.90
41694;DHT22;27377;50.666;9.150;2024-02-26T02:02:50;4.70;99.90
41694;DHT22;27377;50.666;9.150;2024-02-26T02:05:36;4.70;99.90
41694;DHT22;27377;50.666;9.150;2024-02-26T02:08:25;4.60;99.90
41694;DHT22;27377;50.666;9.150;2024-02-26T02:11:11;4.60;99.90
41694;DHT22;27377;50.666;9.150;2024-02-26T02:13:58;4.70;99.90
41694;DHT22;27377;50.666;9.150;2024-02-26T02:16:43;4.70;99.90
41694;DHT22;27377;50.666;9.150;2024-02-26T02:19:27;4.80;99.90
41694;DHT22;27377;50.666;9.150;2024-02-26T02:22:11;4.80;99.90
41694;DHT22;27377;50.666;9.150;2024-02-26T02:24:55;4.80;99.90
41694;DHT22;27377;50.666;9.150;2024-02-26T02:27:40;4.90;99.90
41694;DHT22;27377;50.666;9.150;2024-02-26T02:30:26;4.90;99.90
41694;DHT22;27377;50.666;9.150;2024-02-26T02:33:11;4.90;99.90
41694;DHT22;27377;50.666;9.150;2024-02-26T02:35:56;4.90;99.90
41694;DHT22;27377;50.666;9.150;2024-02-26T02:38:51;5.00;99.90
41694;DHT22;27377;50.666;9.150;2024-02-26T02:41:36;4.90;99.90
41694;DHT22;27377;50.666;9.150;2024-02-26T02:44:20;4.90;99.90
41694;DHT22;27377;50.666;9.150;2024-02-26T02:47:04;4.90;99.90
41694;DHT22;27377;50.666;9.150;2024-02-26T02:49:48;5.00;99.90
41694;DHT22;27377;50.666;9.150;2024-02-26T02:52:32;5.00;99.90
41694;DHT22;27377;50.666;9.150;2024-02-26T02:55:16;5.00;99.90
41694;DHT22;27377;50.666;9.150;2024-02-26T02:58:00;5.00;99.90
41694;DHT22;27377;50.666;9.150;2024-02-26T03:00:45;5.00;99.90
41694;DHT22;27377;50.666;9.150;2024-02-26T03:03:29;5.10;99.90
41694;DHT22;27377;50.666;9.150;2024-02-26T03:06:13;5.10;99.90
41694;DHT22;27377;50.666;9.150;2024-02-26T03:08:57;5.10;99.90
41694;DHT22;27377;50.666;9.150;2024-02-26T03:11:41;5.10;99.90
41694;DHT22;27377;50.666;9.150;2024-02-26T03:14:25;5.10;99.90
41694;DHT22;27377;50.666;9.150;2024-02-26T03:17:09;5.10;99.90
41694;DHT22;27377;50.666;9.150;2024-02-26T03:19:53;5.00;99.90
41694;DHT22;27377;50.666;9.150;2024-02-26T03:22:39;5.00;99.90
41694;DHT22;27377;50.666;9.150;2024-02-26T03:25:23;5.00;99.90
41694;DHT22;27377;50.666;9.150;2024-02-26T03:28:07;5.00;99.90
41694;DHT22;27377;50.666;9.150;2024-02-26T03:30:51;5.00;99.90
41694;DHT22;27377;50.666;9.150;2024-02-26T03:33:36;5.00;99.90
41694;DHT22;27377;50.666;9.150;2024-02-26T03:36:20;5.00;99.90
41694;DHT22;27377;50.666;9.150;2024-02-26T03:39:05;4.90;99.90
41694;DHT22;27377;50.666;9.150;2024-02-26T03:41:51;4.90;99.90
41694;DHT22;27377;50.666;9.150;2024-02-26T03:44:35;4.90;99.90
41694;DHT22;27377;50.666;9.150;2024-02-26T03:47:19;4.90;99.90
41694;DHT22;27377;50.666;9.150;2024-02-26T03:50:04;4.80;99.90
41694;DHT22;27377;50.666;9.150;2024-02-26T03:52:48;4.80;99.90
41694;DHT22;27377;50.666;9.150;2024-02-26T03:55:32;4.90;99.90
41694;DHT22;27377;50.666;9.150;2024-02-26T03:58:17;4.90;99.90
41694;DHT22;27377;50.666;9.150;2024-02-26T04:01:01;4.90;99.90
41694;DHT22;27377;50.666;9.150;2024-02-26T04:03:45;4.90;99.90
41694;DHT22;27377;50.666;9.150;2024-02-26T04:06:29;4.90;99.90
41694;DHT22;27377;50.666;9.150;2024-02-26T04:09:14;4.80;99.90
41694;DHT22;27377;50.666;9.150;2024-02-26T04:11:58;4.80;99.90
41694;DHT22;27377;50.666;9.150;2024-02-26T04:14:42;4.80;99.90
41694;DHT22;27377;50.666;9.150;2024-02-26T04:17:26;4.80;99.90
41694;DHT22;27377;50.666;9.150;2024-02-26T04:20:15;4.90;99.90
41694;DHT22;27377;50.666;9.150;2024-02-26T04:23:03;4.90;99.90
41694;DHT22;27377;50.666;9.150;2024-02-26T04:25:48;4.80;99.90
41694;DHT22;27377;50.666;9.150;2024-02-26T04:28:33;4.80;99.90
41694;DHT22;27377;50.666;9.150;2024-02-26T04:31:23;4.80;99.90
41694;DHT22;27377;50.666;9.150;2024-02-26T04:34:10;4.80;99.90
41694;DHT22;27377;50.666;9.150;2024-02-26T04:36:55;4.70;99.90
41694;DHT22;27377;50.666;9.150;2024-02-26T04:39:39;4.80;99.90
41694;DHT22;27377;50.666;9.150;2024-02-26T04:42:23;4.80;99.90
41694;DHT22;27377;50.666;9.150;2024-02-26T04:45:10;4.80;99.90
41694;DHT22;27377;50.666;9.150;2024-02-26T04:47:54;4.80;99.90
41694;DHT22;27377;50.666;9.150;2024-02-26T04:50:39;4.80;99.90
41694;DHT22;27377;50.666;9.150;2024-02-26T04:53:23;4.80;99.90
41694;DHT22;27377;50.666;9.150;2024-02-26T04:56:07;4.80;99.90
41694;DHT22;27377;50.666;9.150;2024-02-26T04:58:52;4.80;99.90
41694;DHT22;27377;50.666;9.150;2024-02-26T05:01:36;4.80;99.90
41694;DHT22;27377;50.666;9.150;2024-02-26T05:04:21;4.80;99.90
41694;DHT22;27377;50.666;9.150;2024-02-26T05:07:05;4.80;99.90
41694;DHT22;27377;50.666;9.150;2024-02-26T05:09:49;4.90;99.90
41694;DHT22;27377;50.666;9.150;2024-02-26T05:12:34;4.80;99.90
41694;DHT22;27377;50.666;9.150;2024-02-26T05:15:19;4.90;99.90
41694;DHT22;27377;50.666;9.150;2024-02-26T05:18:07;4.90;99.90
41694;DHT22;27377;50.666;9.150;2024-02-26T05:20:52;4.90;99.90
41694;DHT22;27377;50.666;9.150;2024-02-26T05:23:36;4.90;99.90
41694;DHT22;27377;50.666;9.150;2024-02-26T05:26:21;5.00;99.90
41694;DHT22;27377;50.666;9.150;2024-02-26T05:29:05;4.90;99.90
41694;DHT22;27377;50.666;9.150;2024-02-26T05:31:51;4.90;99.90
41694;DHT22;27377;50.666;9.150;2024-02-26T05:34:37;5.00;99.90
41694;DHT22;27377;50.666;9.150;2024-02-26T05:37:24;5.00;99.90
41694;DHT22;27377;50.666;9.150;2024-02-26T05:40:12;5.00;99.90
41694;DHT22;27377;50.666;9.150;2024-02-26T05:42:56;4.90;99.90
41694;DHT22;27377;50.666;9.150;2024-02-26T05:45:41;4.90;99.90
41694;DHT22;27377;50.666;9.150;2024-02-26T05:48:25;4.90;99.90
41694;DHT22;27377;50.666;9.150;2024-02-26T05:51:10;4.90;99.90
41694;DHT22;27377;50.666;9.150;2024-02-26T05:53:55;4.90;99.90
41694;DHT22;27377;50.666;9.150;2024-02-26T05:56:40;4.90;99.90
41694;DHT22;27377;50.666;9.150;2024-02-26T05:59:24;4.90;99.90
41694;DHT22;27377;50.666;9.150;2024-02-26T06:02:08;4.90;99.90
41694;DHT22;27377;50.666;9.150;2024-02-26T06:04:52;4.90;99.90
41694;DHT22;27377;50.666;9.150;2024-02-26T06:07:36;4.90;99.90
41694;DHT22;27377;50.666;9.150;2024-02-26T06:10:20;4.90;99.90
41694;DHT22;27377;50.666;9.150;2024-02-26T06:13:05;4.90;99.90
41694;DHT22;27377;50.666;9.150;2024-02-26T06:15:49;4.90;99.90
41694;DHT22;27377;50.666;9.150;2024-02-26T06:18:33;4.90;99.90
41694;DHT22;27377;50.666;9.150;2024-02-26T06:21:17;4.90;99.90
41694;DHT22;27377;50.666;9.150;2024-02-26T06:24:01;4.90;99.90
41694;DHT22;27377;50.666;9.150;2024-02-26T06:26:45;4.90;99.90
41694;DHT22;27377;50.666;9.150;2024-02-26T06:29:29;4.90;99.90
41694;DHT22;27377;50.666;9.150;2024-02-26T06:32:14;4.90;99.90
41694;DHT22;27377;50.666;9.150;2024-02-26T06:34:58;4.90;99.90
41694;DHT22;27377;50.666;9.150;2024-02-26T06:37:42;4.90;99.90
41694;DHT22;27377;50.666;9.150;2024-02-26T06:40:26;4.90;99.90
41694;DHT22;27377;50.666;9.150;2024-02-26T06:43:10;4.90;99.90
41694;DHT22;27377;50.666;9.150;2024-02-26T06:45:54;4.90;99.90
41694;DHT22;27377;50.666;9.150;2024-02-26T06:48:38;4.90;99.90
41694;DHT22;27377;50.666;9.150;2024-02-26T06:51:23;4.90;99.90
41694;DHT22;27377;50.666;9.150;2024-02-26T06:54:07;4.90;99.90
41694;DHT22;27377;50.666;9.150;2024-02-26T06:56:51;4.90;99.90
41694;DHT22;27377;50.666;9.150;2024-02-26T06:59:35;4.90;99.90
41694;DHT22;27377;50.666;9.150;2024-02-26T07:02:19;4.90;99.90
41694;DHT22;27377;50.666;9.150;2024-02-26T07:05:03;5.00;99.90
41694;DHT22;27377;50.666;9.150;2024-02-26T07:07:47;4.90;99.90
41694;DHT22;27377;50.666;9.150;2024-02-26T07:10:31;4.90;99.90
41694;DHT22;27377;50.666;9.150;2024-02-26T07:13:15;4.90;99.90
41694;DHT22;27377;50.666;9.150;2024-02-26T07:15:59;4.90;99.90
41694;DHT22;27377;50.666;9.150;2024-02-26T07:18:43;5.00;99.90
41694;DHT22;27377;50.666;9.150;2024-02-26T07:21:27;5.00;99.90
41694;DHT22;27377;50.666;9.150;2024-02-26T07:24:12;5.00;99.90
41694;DHT22;27377;50.666;9.150;2024-02-26T07:26:57;5.00;99.90
41694;DHT22;27377;50.666;9.150;2024-02-26T07:29:41;5.00;99.90
41694;DHT22;27377;50.666;9.150;2024-02-26T07:32:25;5.00;99.90
41694;DHT22;27377;50.666;9.150;2024-02-26T07:35:09;5.10;99.90
41694;DHT22;27377;50.666;9.150;2024-02-26T07:37:53;5.10;99.90
41694;DHT22;27377;50.666;9.150;2024-02-26T07:40:38;5.10;99.90
41694;DHT22;27377;50.666;9.150;2024-02-26T07:43:22;5.10;99.90
41694;DHT22;27377;50.666;9.150;2024-02-26T07:46:05;5.10;99.90
41694;DHT22;27377;50.666;9.150;2024-02-26T07:48:51;5.10;99.90
41694;DHT22;27377;50.666;9.150;2024-02-26T07:51:35;5.20;99.90
41694;DHT22;27377;50.666;9.150;2024-02-26T07:54:19;5.10;99.90
41694;DHT22;27377;50.666;9.150;2024-02-26T07:57:03;5.20;99.90
41694;DHT22;27377;50.666;9.150;2024-02-26T07:59:49;5.20;99.90
41694;DHT22;27377;50.666;9.150;2024-02-26T08:02:33;5.20;99.90
41694;DHT22;27377;50.666;9.150;2024-02-26T08:05:18;5.20;99.90
41694;DHT22;27377;50.666;9.150;2024-02-26T08:08:02;5.20;99.90
41694;DHT22;27377;50.666;9.150;2024-02-26T08:10:46;5.30;99.90
41694;DHT22;27377;50.666;9.150;2024-02-26T08:13:30;5.20;99.90
41694;DHT22;27377;50.666;9.150;2024-02-26T08:16:14;5.30;99.90
41694;DHT22;27377;50.666;9.150;2024-02-26T08:18:58;5.30;99.90
41694;DHT22;27377;50.666;9.150;2024-02-26T08:21:42;5.30;99.90
41694;DHT22;27377;50.666;9.150;2024-02-26T08:24:26;5.30;99.90
41694;DHT22;27377;50.666;9.150;2024-02-26T08:27:11;5.30;99.90
41694;DHT22;27377;50.666;9.150;2024-02-26T08:29:55;5.30;99.90
41694;DHT22;27377;50.666;9.150;2024-02-26T08:32:40;5.30;99.90
41694;DHT22;27377;50.666;9.150;2024-02-26T08:35:24;5.40;99.90
41694;DHT22;27377;50.666;9.150;2024-02-26T08:38:09;5.40;99.90
41694;DHT22;27377;50.666;9.150;2024-02-26T08:40:53;5.40;99.90
41694;DHT22;27377;50.666;9.150;2024-02-26T08:43:37;5.40;99.90
41694;DHT22;27377;50.666;9.150;2024-02-26T08:46:21;5.40;99.90
41694;DHT22;27377;50.666;9.150;2024-02-26T08:49:05;5.40;99.90
41694;DHT22;27377;50.666;9.150;2024-02-26T08:51:49;5.50;99.90
41694;DHT22;27377;50.666;9.150;2024-02-26T08:54:33;5.50;99.90
41694;DHT22;27377;50.666;9.150;2024-02-26T08:57:17;5.50;99.90
41694;DHT22;27377;50.666;9.150;2024-02-26T09:00:02;5.50;99.90
41694;DHT22;27377;50.666;9.150;2024-02-26T09:02:47;5.60;99.90
41694;DHT22;27377;50.666;9.150;2024-02-26T09:05:32;5.60;99.90
41694;DHT22;27377;50.666;9.150;2024-02-26T09:08:16;5.60;99.90
41694;DHT22;27377;50.666;9.150;2024-02-26T09:11:00;5.60;99.90
41694;DHT22;27377;50.666;9.150;2024-02-26T09:13:44;5.60;99.90
41694;DHT22;27377;50.666;9.150;2024-02-26T09:16:28;5.60;99.90
41694;DHT22;27377;50.666;9.150;2024-02-26T09:19:13;5.60;99.90
41694;DHT22;27377;50.666;9.150;2024-02-26T09:21:57;5.60;99.90
41694;DHT22;27377;50.666;9.150;2024-02-26T09:24:42;5.70;99.90
41694;DHT22;27377;50.666;9.150;2024-02-26T09:27:26;5.70;99.90
41694;DHT22;27377;50.666;9.150;2024-02-26T09:30:13;5.70;99.90
41694;DHT22;27377;50.666;9.150;2024-02-26T09:32:57;5.60;99.90
41694;DHT22;27377;50.666;9.150;2024-02-26T09:35:41;5.70;99.90
41694;DHT22;27377;50.666;9.150;2024-02-26T09:38:26;5.70;99.90
41694;DHT22;27377;50.666;9.150;2024-02-26T09:41:14;5.70;99.90
41694;DHT22;27377;50.666;9.150;2024-02-26T09:44:02;5.70;99.90
41694;DHT22;27377;50.666;9.150;2024-02-26T09:46:48;5.70;99.90
41694;DHT22;27377;50.666;9.150;2024-02-26T09:49:36;5.80;99.90
41694;DHT22;27377;50.666;9.150;2024-02-26T09:52:21;5.80;99.90
41694;DHT22;27377;50.666;9.150;2024-02-26T09:55:08;5.80;99.90
41694;DHT22;27377;50.666;9.150;2024-02-26T09:57:54;5.80;99.90
41694;DHT22;27377;50.666;9.150;2024-02-26T10:00:40;5.80;99.90
41694;DHT22;27377;50.666;9.150;2024-02-26T10:03:29;5.80;99.90
41694;DHT22;27377;50.666;9.150;2024-02-26T10:06:14;5.90;99.90
41694;DHT22;27377;50.666;9.150;2024-02-26T10:08:59;5.90;99.90
41694;DHT22;27377;50.666;9.150;2024-02-26T10:11:45;5.90;99.90
41694;DHT22;27377;50.666;9.150;2024-02-26T10:14:31;5.90;99.90
41694;DHT22;27377;50.666;9.150;2024-02-26T10:17:15;6.00;99.90
41694;DHT22;27377;50.666;9.150;2024-02-26T10:20:14;6.00;99.90
41694;DHT22;27377;50.666;9.150;2024-02-26T10:23:03;6.00;99.90
41694;DHT22;27377;50.666;9.150;2024-02-26T10:25:53;6.00;99.90
41694;DHT22;27377;50.666;9.150;2024-02-26T10:28:39;6.00;99.90
41694;DHT22;27377;50.666;9.150;2024-02-26T10:31:24;6.00;99.90
41694;DHT22;27377;50.666;9.150;2024-02-26T10:34:08;6.10;99.90
41694;DHT22;27377;50.666;9.150;2024-02-26T10:36:53;6.00;99.90
41694;DHT22;27377;50.666;9.150;2024-02-26T10:39:38;6.10;99.90
41694;DHT22;27377;50.666;9.150;2024-02-26T10:42:22;6.10;99.90
41694;DHT22;27377;50.666;9.150;2024-02-26T10:45:07;6.10;99.90
41694;DHT22;27377;50.666;9.150;2024-02-26T10:47:53;6.10;99.90
41694;DHT22;27377;50.666;9.150;2024-02-26T10:50:38;6.10;99.90
41694;DHT22;27377;50.666;9.150;2024-02-26T10:53:23;6.20;99.90
41694;DHT22;27377;50.666;9.150;2024-02-26T10:56:10;6.20;99.90
41694;DHT22;27377;50.666;9.150;2024-02-26T10:58:55;6.20;99.90
41694;DHT22;27377;50.666;9.150;2024-02-26T11:01:42;6.20;99.90
41694;DHT22;27377;50.666;9.150;2024-02-26T11:04:31;6.20;99.90
41694;DHT22;27377;50.666;9.150;2024-02-26T11:07:16;6.20;99.90
41694;DHT22;27377;50.666;9.150;2024-02-26T11:10:03;6.20;99.90
41694;DHT22;27377;50.666;9.150;2024-02-26T11:12:48;6.20;99.90
41694;DHT22;27377;50.666;9.150;2024-02-26T11:15:33;6.30;99.90
41694;DHT22;27377;50.666;9.150;2024-02-26T11:18:19;6.30;99.90
41694;DHT22;27377;50.666;9.150;2024-02-26T11:21:04;6.30;99.90
41694;DHT22;27377;50.666;9.150;2024-02-26T11:23:49;6.30;99.90
41694;DHT22;27377;50.666;9.150;2024-02-26T11:26:47;6.30;99.90
41694;DHT22;27377;50.666;9.150;2024-02-26T11:29:38;6.30;99.90
41694;DHT22;27377;50.666;9.150;2024-02-26T11:32:23;6.30;99.90
41694;DHT22;27377;50.666;9.150;2024-02-26T11:35:09;6.30;99.90
41694;DHT22;27377;50.666;9.150;2024-02-26T11:37:55;6.30;99.90
41694;DHT22;27377;50.666;9.150;2024-02-26T11:40:40;6.30;99.90
41694;DHT22;27377;50.666;9.150;2024-02-26T11:44:00;6.30;99.90
41694;DHT22;27377;50.666;9.150;2024-02-26T11:46:46;6.30;99.90
41694;DHT22;27377;50.666;9.150;2024-02-26T11:49:30;6.30;99.90
41694;DHT22;27377;50.666;9.150;2024-02-26T11:52:15;6.30;99.90
41694;DHT22;27377;50.666;9.150;2024-02-26T11:55:00;6.40;99.90
41694;DHT22;27377;50.666;9.150;2024-02-26T11:57:44;6.40;99.90
41694;DHT22;27377;50.666;9.150;2024-02-26T12:00:28;6.40;99.90
41694;DHT22;27377;50.666;9.150;2024-02-26T12:03:16;6.40;99.90
41694;DHT22;27377;50.666;9.150;2024-02-26T12:06:02;6.40;99.90
41694;DHT22;27377;50.666;9.150;2024-02-26T12:08:46;6.50;99.90
41694;DHT22;27377;50.666;9.150;2024-02-26T12:11:30;6.50;99.90
41694;DHT22;27377;50.666;9.150;2024-02-26T12:14:18;6.50;99.90
41694;DHT22;27377;50.666;9.150;2024-02-26T12:17:03;6.50;99.90
41694;DHT22;27377;50.666;9.150;2024-02-26T12:19:51;6.50;99.90
41694;DHT22;27377;50.666;9.150;2024-02-26T12:22:39;6.50;99.90
41694;DHT22;27377;50.666;9.150;2024-02-26T12:25:29;6.60;99.90
41694;DHT22;27377;50.666;9.150;2024-02-26T12:28:14;6.60;99.90
41694;DHT22;27377;50.666;9.150;2024-02-26T12:30:59;6.60;99.90
41694;DHT22;27377;50.666;9.150;2024-02-26T12:33:43;6.60;99.90
41694;DHT22;27377;50.666;9.150;2024-02-26T12:36:28;6.60;99.90
41694;DHT22;27377;50.666;9.150;2024-02-26T12:39:12;6.60;99.90
41694;DHT22;27377;50.666;9.150;2024-02-26T12:41:58;6.70;99.90
41694;DHT22;27377;50.666;9.150;2024-02-26T12:44:47;6.70;99.90
41694;DHT22;27377;50.666;9.150;2024-02-26T12:47:31;6.70;99.90
41694;DHT22;27377;50.666;9.150;2024-02-26T12:50:15;6.70;99.90
41694;DHT22;27377;50.666;9.150;2024-02-26T12:53:00;6.70;99.90
41694;DHT22;27377;50.666;9.150;2024-02-26T12:55:44;6.70;99.90
41694;DHT22;27377;50.666;9.150;2024-02-26T12:58:29;6.70;99.90
41694;DHT22;27377;50.666;9.150;2024-02-26T13:01:15;6.70;99.90
41694;DHT22;27377;50.666;9.150;2024-02-26T13:04:01;6.70;99.90
41694;DHT22;27377;50.666;9.150;2024-02-26T13:06:50;6.70;99.90
41694;DHT22;27377;50.666;9.150;2024-02-26T13:09:35;6.70;99.90
41694;DHT22;27377;50.666;9.150;2024-02-26T13:12:19;6.80;99.90
41694;DHT22;27377;50.666;9.150;2024-02-26T13:15:04;6.80;99.90
41694;DHT22;27377;50.666;9.150;2024-02-26T13:17:49;6.80;99.90
41694;DHT22;27377;50.666;9.150;2024-02-26T13:20:33;6.80;99.90
41694;DHT22;27377;50.666;9.150;2024-02-26T13:23:18;6.90;99.90
41694;DHT22;27377;50.666;9.150;2024-02-26T13:26:03;6.90;99.90
41694;DHT22;27377;50.666;9.150;2024-02-26T13:28:47;6.90;99.90
41694;DHT22;27377;50.666;9.150;2024-02-26T13:31:33;6.90;99.90
41694;DHT22;27377;50.666;9.150;2024-02-26T13:34:26;6.90;99.90
41694;DHT22;27377;50.666;9.150;2024-02-26T13:37:10;7.00;99.90
41694;DHT22;27377;50.666;9.150;2024-02-26T13:39:54;7.00;99.90
41694;DHT22;27377;50.666;9.150;2024-02-26T13:42:39;7.00;99.90
41694;DHT22;27377;50.666;9.150;2024-02-26T13:45:23;7.00;99.90
41694;DHT22;27377;50.666;9.150;2024-02-26T13:48:08;7.00;99.90
41694;DHT22;27377;50.666;9.150;2024-02-26T13:50:56;7.00;99.90
41694;DHT22;27377;50.666;9.150;2024-02-26T13:53:40;7.10;99.90
41694;DHT22;27377;50.666;9.150;2024-02-26T13:56:24;7.10;99.90
41694;DHT22;27377;50.666;9.150;2024-02-26T13:59:10;7.10;99.90
41694;DHT22;27377;50.666;9.150;2024-02-26T14:01:54;7.10;99.90
41694;DHT22;27377;50.666;9.150;2024-02-26T14:04:39;7.10;99.90
41694;DHT22;27377;50.666;9.150;2024-02-26T14:07:23;7.10;99.90
41694;DHT22;27377;50.666;9.150;2024-02-26T14:10:13;7.20;99.90
41694;DHT22;27377;50.666;9.150;2024-02-26T14:12:58;7.20;99.90
41694;DHT22;27377;50.666;9.150;2024-02-26T14:15:45;7.20;99.90
41694;DHT22;27377;50.666;9.150;2024-02-26T14:18:32;7.30;99.90
41694;DHT22;27377;50.666;9.150;2024-02-26T14:21:16;7.30;99.90
41694;DHT22;27377;50.666;9.150;2024-02-26T14:24:01;7.30;99.90
41694;DHT22;27377;50.666;9.150;2024-02-26T14:26:52;7.30;99.90
41694;DHT22;27377;50.666;9.150;2024-02-26T14:29:45;7.20;99.90
41694;DHT22;27377;50.666;9.150;2024-02-26T14:32:29;7.30;99.90
41694;DHT22;27377;50.666;9.150;2024-02-26T14:35:19;7.30;99.90
41694;DHT22;27377;50.666;9.150;2024-02-26T14:38:08;7.20;99.90
41694;DHT22;27377;50.666;9.150;2024-02-26T14:40:53;7.30;99.90
41694;DHT22;27377;50.666;9.150;2024-02-26T14:43:38;7.30;99.90
41694;DHT22;27377;50.666;9.150;2024-02-26T14:46:23;7.30;99.90
41694;DHT22;27377;50.666;9.150;2024-02-26T14:49:07;7.30;99.90
41694;DHT22;27377;50.666;9.150;2024-02-26T14:51:52;7.40;99.90
41694;DHT22;27377;50.666;9.150;2024-02-26T14:54:37;7.40;99.90
41694;DHT22;27377;50.666;9.150;2024-02-26T14:57:31;7.40;99.90
41694;DHT22;27377;50.666;9.150;2024-02-26T15:00:19;7.40;99.90
41694;DHT22;27377;50.666;9.150;2024-02-26T15:03:04;7.40;99.90
41694;DHT22;27377;50.666;9.150;2024-02-26T15:05:55;7.40;99.90
41694;DHT22;27377;50.666;9.150;2024-02-26T15:08:40;7.40;99.90
41694;DHT22;27377;50.666;9.150;2024-02-26T15:11:24;7.40;99.90
41694;DHT22;27377;50.666;9.150;2024-02-26T15:14:08;7.40;99.90
41694;DHT22;27377;50.666;9.150;2024-02-26T15:16:56;7.50;99.90
41694;DHT22;27377;50.666;9.150;2024-02-26T15:19:41;7.50;99.90
41694;DHT22;27377;50.666;9.150;2024-02-26T15:22:25;7.50;99.90
41694;DHT22;27377;50.666;9.150;2024-02-26T15:25:11;7.50;99.90
41694;DHT22;27377;50.666;9.150;2024-02-26T15:27:55;7.50;99.90
41694;DHT22;27377;50.666;9.150;2024-02-26T15:30:42;7.50;99.90
41694;DHT22;27377;50.666;9.150;2024-02-26T15:33:26;7.50;99.90
41694;DHT22;27377;50.666;9.150;2024-02-26T15:36:10;7.50;99.90
41694;DHT22;27377;50.666;9.150;2024-02-26T15:38:55;7.50;99.90
41694;DHT22;27377;50.666;9.150;2024-02-26T15:41:41;7.50;99.90
41694;DHT22;27377;50.666;9.150;2024-02-26T15:44:25;7.50;99.90
41694;DHT22;27377;50.666;9.150;2024-02-26T15:47:09;7.50;99.90
41694;DHT22;27377;50.666;9.150;2024-02-26T15:49:53;7.40;99.90
41694;DHT22;27377;50.666;9.150;2024-02-26T15:52:38;7.50;99.90
41694;DHT22;27377;50.666;9.150;2024-02-26T15:55:23;7.40;99.90
41694;DHT22;27377;50.666;9.150;2024-02-26T15:58:10;7.50;99.90
41694;DHT22;27377;50.666;9.150;2024-02-26T16:00:54;7.50;99.90
41694;DHT22;27377;50.666;9.150;2024-02-26T16:03:39;7.50;99.90
41694;DHT22;27377;50.666;9.150;2024-02-26T16:06:34;7.40;99.90
41694;DHT22;27377;50.666;9.150;2024-02-26T16:09:19;7.40;99.90
41694;DHT22;27377;50.666;9.150;2024-02-26T16:12:17;7.40;99.90
41694;DHT22;27377;50.666;9.150;2024-02-26T16:15:03;7.40;99.90
41694;DHT22;27377;50.666;9.150;2024-02-26T16:17:49;7.40;99.90
41694;DHT22;27377;50.666;9.150;2024-02-26T16:20:35;7.40;99.90
41694;DHT22;27377;50.666;9.150;2024-02-26T16:23:20;7.40;99.90
41694;DHT22;27377;50.666;9.150;2024-02-26T16:26:04;7.40;99.90
41694;DHT22;27377;50.666;9.150;2024-02-26T16:28:48;7.40;99.90
41694;DHT22;27377;50.666;9.150;2024-02-26T16:31:32;7.40;99.90
41694;DHT22;27377;50.666;9.150;2024-02-26T16:34:17;7.40;99.90
41694;DHT22;27377;50.666;9.150;2024-02-26T16:37:08;7.40;99.90
41694;DHT22;27377;50.666;9.150;2024-02-26T16:40:01;7.40;99.90
41694;DHT22;27377;50.666;9.150;2024-02-26T16:42:45;7.40;99.90
41694;DHT22;27377;50.666;9.150;2024-02-26T16:45:29;7.40;99.90
41694;DHT22;27377;50.666;9.150;2024-02-26T16:48:13;7.40;99.90
41694;DHT22;27377;50.666;9.150;2024-02-26T16:50:59;7.40;99.90
41694;DHT22;27377;50.666;9.150;2024-02-26T16:53:44;7.40;99.90
41694;DHT22;27377;50.666;9.150;2024-02-26T16:56:28;7.40;99.90
41694;DHT22;27377;50.666;9.150;2024-02-26T16:59:12;7.40;99.90
41694;DHT22;27377;50.666;9.150;2024-02-26T17:01:57;7.40;99.90
41694;DHT22;27377;50.666;9.150;2024-02-26T17:04:43;7.40;99.90
41694;DHT22;27377;50.666;9.150;2024-02-26T17:07:27;7.40;99.90
41694;DHT22;27377;50.666;9.150;2024-02-26T17:10:11;7.40;99.90
41694;DHT22;27377;50.666;9.150;2024-02-26T17:12:56;7.40;99.90
41694;DHT22;27377;50.666;9.150;2024-02-26T17:15:40;7.30;99.90
41694;DHT22;27377;50.666;9.150;2024-02-26T17:18:24;7.30;99.90
41694;DHT22;27377;50.666;9.150;2024-02-26T17:21:08;7.30;99.90
41694;DHT22;27377;50.666;9.150;2024-02-26T17:23:52;7.30;99.90
41694;DHT22;27377;50.666;9.150;2024-02-26T17:26:36;7.30;99.90
41694;DHT22;27377;50.666;9.150;2024-02-26T17:29:20;7.30;99.90
41694;DHT22;27377;50.666;9.150;2024-02-26T17:32:05;7.30;99.90
41694;DHT22;27377;50.666;9.150;2024-02-26T17:34:49;7.30;99.90
41694;DHT22;27377;50.666;9.150;2024-02-26T17:37:33;7.30;99.90
41694;DHT22;27377;50.666;9.150;2024-02-26T17:40:17;7.30;99.90